createdAt,value
2022-08-28T00:02:01.217Z,22.40
2022-08-28T00:04:30.729Z,22.30
2022-08-28T00:07:00.137Z,22.30
2022-08-28T00:09:29.839Z,22.30
2022-08-28T00:11:59.329Z,22.30
2022-08-28T00:14:29.955Z,22.20
2022-08-28T00:16:59.167Z,22.20
2022-08-28T00:19:28.808Z,22.20
2022-08-28T00:21:58.545Z,22.10
2022-08-28T00:24:27.884Z,22.00
2022-08-28T00:27:14.557Z,22.00
2022-08-28T00:29:45.763Z,21.90
2022-08-28T00:32:15.404Z,21.90
2022-08-28T00:34:44.916Z,21.80
2022-08-28T00:37:15.867Z,21.80
2022-08-28T00:39:45.200Z,21.80
2022-08-28T00:42:14.475Z,21.80
2022-08-28T00:44:46.148Z,21.80
2022-08-28T00:47:15.434Z,21.70
2022-08-28T00:49:49.316Z,21.50
2022-08-28T00:52:19.043Z,21.50
2022-08-28T00:54:58.613Z,21.40
2022-08-28T00:57:33.928Z,21.30
2022-08-28T01:00:06.928Z,21.20
2022-08-28T01:02:36.484Z,21.10
2022-08-28T01:05:10.098Z,21.00
2022-08-28T01:07:40.262Z,20.90
2022-08-28T01:10:12.505Z,20.80
2022-08-28T01:12:42.322Z,20.70
2022-08-28T01:15:17.683Z,20.50
2022-08-28T01:17:51.735Z,20.50
2022-08-28T01:20:26.967Z,20.40
2022-08-28T01:23:04.927Z,20.40
2022-08-28T01:25:38.735Z,20.30
2022-08-28T01:28:10.771Z,20.40
2022-08-28T01:30:41.740Z,20.30
2022-08-28T01:33:11.944Z,20.30
2022-08-28T01:35:44.478Z,20.10
2022-08-28T01:38:14.180Z,20.10
2022-08-28T01:40:54.009Z,20.00
2022-08-28T01:43:26.467Z,20.00
2022-08-28T01:46:00.360Z,20.10
2022-08-28T01:48:31.661Z,20.10
2022-08-28T01:51:01.232Z,20.10
2022-08-28T01:53:33.085Z,20.00
2022-08-28T01:56:07.201Z,19.90
2022-08-28T01:58:38.403Z,19.70
2022-08-28T02:01:11.975Z,19.70
2022-08-28T02:03:43.450Z,19.80
2022-08-28T02:06:13.635Z,19.80
2022-08-28T02:08:42.875Z,19.80
2022-08-28T02:11:14.278Z,19.80
2022-08-28T02:13:43.851Z,19.90
2022-08-28T02:16:13.595Z,19.90
2022-08-28T02:18:43.142Z,19.80
2022-08-28T02:21:13.998Z,19.80
2022-08-28T02:23:45.537Z,19.80
2022-08-28T02:26:16.743Z,19.90
2022-08-28T02:28:46.033Z,20.00
2022-08-28T02:31:15.884Z,20.00
2022-08-28T02:33:46.598Z,20.10
2022-08-28T02:36:17.247Z,20.10
2022-08-28T02:38:47.639Z,20.20
2022-08-28T02:41:18.239Z,20.20
2022-08-28T02:43:47.577Z,20.20
2022-08-28T02:46:16.899Z,20.20
2022-08-28T02:48:45.991Z,20.20
2022-08-28T02:51:15.974Z,20.30
2022-08-28T02:53:45.437Z,20.30
2022-08-28T02:56:14.573Z,20.30
2022-08-28T02:58:45.358Z,20.30
2022-08-28T03:01:15.316Z,20.30
2022-08-28T03:03:44.688Z,20.30
2022-08-28T03:06:15.539Z,20.30
2022-08-28T03:08:47.064Z,20.30
2022-08-28T03:11:16.456Z,20.30
2022-08-28T03:13:47.044Z,20.30
2022-08-28T03:16:16.417Z,20.30
2022-08-28T03:18:46.043Z,20.30
2022-08-28T03:21:15.900Z,20.20
2022-08-28T03:23:45.221Z,20.20
2022-08-28T03:26:17.139Z,20.30
2022-08-28T03:28:50.589Z,20.30
2022-08-28T03:31:23.336Z,20.20
2022-08-28T03:33:54.052Z,20.20
2022-08-28T03:36:26.226Z,20.20
2022-08-28T03:38:57.948Z,20.20
2022-08-28T03:41:29.470Z,20.20
2022-08-28T03:44:01.945Z,20.20
2022-08-28T03:46:33.288Z,20.20
2022-08-28T03:49:04.778Z,20.10
2022-08-28T03:51:35.770Z,20.20
2022-08-28T03:54:06.325Z,20.20
2022-08-28T03:56:35.531Z,20.20
2022-08-28T03:59:06.696Z,20.20
2022-08-28T04:01:38.398Z,20.20
2022-08-28T04:04:07.771Z,20.20
2022-08-28T04:06:37.168Z,20.20
2022-08-28T04:09:07.097Z,20.30
2022-08-28T04:11:39.216Z,20.30
2022-08-28T04:14:09.868Z,20.20
2022-08-28T04:16:40.012Z,20.20
2022-08-28T04:19:09.229Z,20.10
2022-08-28T04:21:39.948Z,20.00
2022-08-28T04:24:09.746Z,20.10
2022-08-28T04:26:39.169Z,20.10
2022-08-28T04:29:09.886Z,20.10
2022-08-28T04:31:39.608Z,20.10
2022-08-28T04:34:11.229Z,20.20
2022-08-28T04:36:41.557Z,20.20
2022-08-28T04:39:11.338Z,20.30
2022-08-28T04:41:40.730Z,20.40
2022-08-28T04:44:11.548Z,20.70
2022-08-28T04:46:40.947Z,21.00
2022-08-28T04:49:11.037Z,21.40
2022-08-28T04:51:42.314Z,21.80
2022-08-28T04:54:12.266Z,22.10
2022-08-28T04:56:42.631Z,22.50
2022-08-28T04:59:13.704Z,22.90
2022-08-28T05:01:44.107Z,23.30
2022-08-28T05:04:14.348Z,23.70
2022-08-28T05:06:46.722Z,24.10
2022-08-28T05:09:18.512Z,24.60
2022-08-28T05:11:48.254Z,25.00
2022-08-28T05:14:20.352Z,25.40
2022-08-28T05:16:51.687Z,25.80
2022-08-28T05:19:22.196Z,26.10
2022-08-28T05:21:51.838Z,26.50
2022-08-28T05:24:21.628Z,26.90
2022-08-28T05:26:50.817Z,27.20
2022-08-28T05:29:21.579Z,27.30
2022-08-28T05:31:52.800Z,27.60
2022-08-28T05:34:22.937Z,27.50
2022-08-28T05:36:52.267Z,27.50
2022-08-28T05:39:21.946Z,27.60
2022-08-28T05:41:52.148Z,27.80
2022-08-28T05:44:22.998Z,27.70
2022-08-28T05:46:52.287Z,28.00
2022-08-28T05:49:21.559Z,28.00
2022-08-28T05:51:51.737Z,28.20
2022-08-28T05:54:21.263Z,28.40
2022-08-28T05:56:51.040Z,28.40
2022-08-28T05:59:21.892Z,28.50
2022-08-28T06:01:52.015Z,28.60
2022-08-28T06:04:23.966Z,28.50
2022-08-28T06:06:53.484Z,28.40
2022-08-28T06:09:29.031Z,28.60
2022-08-28T06:12:01.939Z,28.90
2022-08-28T06:14:33.735Z,29.50
2022-08-28T06:17:06.492Z,29.90
2022-08-28T06:19:41.145Z,30.00
2022-08-28T06:22:12.555Z,30.30
2022-08-28T06:24:41.923Z,30.20
2022-08-28T06:27:11.227Z,30.40
2022-08-28T06:29:42.705Z,30.70
2022-08-28T06:32:12.473Z,31.30
2022-08-28T06:34:42.105Z,31.70
2022-08-28T06:37:11.501Z,32.00
2022-08-28T06:39:40.959Z,32.20
2022-08-28T06:42:10.920Z,32.60
2022-08-28T06:44:42.294Z,33.00
2022-08-28T06:47:11.931Z,33.00
2022-08-28T06:49:41.740Z,32.80
2022-08-28T06:52:11.201Z,32.90
2022-08-28T06:54:40.496Z,32.60
2022-08-28T06:57:26.492Z,33.00
2022-08-28T06:59:59.626Z,33.50
2022-08-28T07:02:29.147Z,33.80
2022-08-28T07:04:59.307Z,34.20
2022-08-28T07:07:31.535Z,34.40
2022-08-28T07:10:02.342Z,34.70
2022-08-28T07:12:31.755Z,35.20
2022-08-28T07:15:04.155Z,35.30
2022-08-28T07:17:33.634Z,35.20
2022-08-28T07:20:03.353Z,34.60
2022-08-28T07:22:32.802Z,34.10
2022-08-28T07:25:03.002Z,33.40
2022-08-28T07:27:32.910Z,33.70
2022-08-28T07:30:04.204Z,34.10
2022-08-28T07:32:34.012Z,34.70
2022-08-28T07:35:03.455Z,35.30
2022-08-28T07:37:33.131Z,35.50
2022-08-28T07:40:05.028Z,35.90
2022-08-28T07:42:54.577Z,36.30
2022-08-28T07:45:25.970Z,36.50
2022-08-28T07:47:55.409Z,36.70
2022-08-28T07:50:24.894Z,36.60
2022-08-28T07:52:54.540Z,36.40
2022-08-28T07:55:24.544Z,36.20
2022-08-28T07:57:54.392Z,36.40
2022-08-28T08:00:27.071Z,36.40
2022-08-28T08:02:56.304Z,36.40
2022-08-28T08:05:25.865Z,36.70
2022-08-28T08:07:55.357Z,37.20
2022-08-28T08:10:25.121Z,37.40
2022-08-28T08:12:54.932Z,37.30
2022-08-28T08:15:31.270Z,37.40
2022-08-28T08:18:01.049Z,37.50
2022-08-28T08:20:30.519Z,37.50
2022-08-28T08:23:00.078Z,37.70
2022-08-28T08:25:29.531Z,37.80
2022-08-28T08:28:04.111Z,38.30
2022-08-28T08:30:34.574Z,38.40
2022-08-28T08:33:03.983Z,37.70
2022-08-28T08:35:33.369Z,37.90
2022-08-28T08:38:03.037Z,38.10
2022-08-28T08:40:32.725Z,38.30
2022-08-28T08:43:03.924Z,38.00
2022-08-28T08:45:37.217Z,38.00
2022-08-28T08:48:06.689Z,38.10
2022-08-28T08:50:42.797Z,38.30
2022-08-28T08:53:24.858Z,38.40
2022-08-28T08:55:57.446Z,38.60
2022-08-28T08:58:31.361Z,38.60
2022-08-28T09:01:09.950Z,38.80
2022-08-28T09:03:54.284Z,38.80
2022-08-28T09:06:31.518Z,38.80
2022-08-28T09:09:03.897Z,39.00
2022-08-28T09:11:43.446Z,38.90
2022-08-28T09:14:21.039Z,38.50
2022-08-28T09:17:00.116Z,38.00
2022-08-28T09:19:29.294Z,38.10
2022-08-28T09:21:58.968Z,38.30
2022-08-28T09:24:30.815Z,38.40
2022-08-28T09:27:03.656Z,38.50
2022-08-28T09:29:35.717Z,38.60
2022-08-28T09:32:23.587Z,38.60
2022-08-28T09:35:13.151Z,38.60
2022-08-28T09:37:44.343Z,38.70
2022-08-28T09:40:24.067Z,38.70
2022-08-28T09:43:22.245Z,38.80
2022-08-28T09:46:01.579Z,38.90
2022-08-28T09:48:37.359Z,38.70
2022-08-28T09:51:09.158Z,38.50
2022-08-28T09:53:44.443Z,38.20
2022-08-28T09:56:19.148Z,38.20
2022-08-28T09:58:51.775Z,37.80
2022-08-28T10:01:52.369Z,37.80
2022-08-28T10:04:43.250Z,37.80
2022-08-28T10:07:18.868Z,37.90
2022-08-28T10:09:55.998Z,38.00
2022-08-28T10:12:41.680Z,37.80
2022-08-28T10:15:19.556Z,37.60
2022-08-28T10:18:05.620Z,37.50
2022-08-28T10:20:46.449Z,37.40
2022-08-28T10:23:23.375Z,37.40
2022-08-28T10:25:59.235Z,37.20
2022-08-28T10:28:44.344Z,37.00
2022-08-28T10:31:21.990Z,37.00
2022-08-28T10:34:07.335Z,36.70
2022-08-28T10:36:38.153Z,36.20
2022-08-28T10:39:18.242Z,35.40
2022-08-28T10:41:50.923Z,35.50
2022-08-28T10:44:26.272Z,35.70
2022-08-28T10:46:58.910Z,36.10
2022-08-28T10:49:33.567Z,36.20
2022-08-28T10:52:08.805Z,36.40
2022-08-28T10:54:43.446Z,36.50
2022-08-28T10:57:26.505Z,36.70
2022-08-28T10:59:56.108Z,36.70
2022-08-28T11:02:27.949Z,36.50
2022-08-28T11:04:58.774Z,36.50
2022-08-28T11:07:34.123Z,36.40
2022-08-28T11:10:42.051Z,36.50
2022-08-28T11:13:11.878Z,36.50
2022-08-28T11:15:54.951Z,36.50
2022-08-28T11:18:50.382Z,35.90
2022-08-28T11:21:26.581Z,35.50
2022-08-28T11:24:01.996Z,35.50
2022-08-28T11:26:37.173Z,35.60
2022-08-28T11:29:06.538Z,35.80
2022-08-28T11:31:40.759Z,36.00
2022-08-28T11:34:30.343Z,35.70
2022-08-28T11:37:04.891Z,35.70
2022-08-28T11:39:36.358Z,35.60
2022-08-28T11:42:35.736Z,35.50
2022-08-28T11:45:06.997Z,35.60
2022-08-28T11:47:46.065Z,35.60
2022-08-28T11:50:23.155Z,35.60
2022-08-28T11:53:35.610Z,35.50
2022-08-28T11:56:38.460Z,35.70
2022-08-28T11:59:23.237Z,36.10
2022-08-28T12:01:52.847Z,36.20
2022-08-28T12:04:25.177Z,36.10
2022-08-28T12:07:17.587Z,36.00
2022-08-28T12:09:48.017Z,35.90
2022-08-28T12:12:53.669Z,36.10
2022-08-28T12:15:43.783Z,36.30
2022-08-28T12:18:37.364Z,36.50
2022-08-28T12:21:13.723Z,36.70
2022-08-28T12:23:45.701Z,36.50
2022-08-28T12:26:24.002Z,36.60
2022-08-28T12:28:56.207Z,36.50
2022-08-28T12:31:58.558Z,36.20
2022-08-28T12:34:35.943Z,36.20
2022-08-28T12:37:18.974Z,36.30
2022-08-28T12:39:48.149Z,36.40
2022-08-28T12:42:20.305Z,36.40
2022-08-28T12:44:49.934Z,36.40
2022-08-28T12:47:24.020Z,36.20
2022-08-28T12:49:53.670Z,36.00
2022-08-28T12:52:27.884Z,35.90
2022-08-28T12:54:58.500Z,35.80
2022-08-28T12:57:28.401Z,35.70
2022-08-28T13:00:08.941Z,35.60
2022-08-28T13:02:38.669Z,35.70
2022-08-28T13:05:11.045Z,35.70
2022-08-28T13:07:47.992Z,35.70
2022-08-28T13:10:22.909Z,35.70
2022-08-28T13:12:58.896Z,35.60
2022-08-28T13:15:49.395Z,35.50
2022-08-28T13:18:47.863Z,35.50
2022-08-28T13:21:32.604Z,35.40
2022-08-28T13:24:27.795Z,35.30
2022-08-28T13:27:07.353Z,35.20
2022-08-28T13:29:37.957Z,35.10
2022-08-28T13:32:10.276Z,35.10
2022-08-28T13:34:46.500Z,35.10
2022-08-28T13:37:43.481Z,35.00
2022-08-28T13:40:36.863Z,34.90
2022-08-28T13:43:08.115Z,34.80
2022-08-28T13:45:43.774Z,34.80
2022-08-28T13:48:14.984Z,34.80
2022-08-28T13:50:47.321Z,34.70
2022-08-28T13:53:19.715Z,34.80
2022-08-28T13:55:52.064Z,34.70
2022-08-28T13:58:21.479Z,34.60
2022-08-28T14:00:53.030Z,34.40
2022-08-28T14:03:39.017Z,34.40
2022-08-28T14:06:12.020Z,34.10
2022-08-28T14:08:43.859Z,34.00
2022-08-28T14:11:17.204Z,33.90
2022-08-28T14:13:55.719Z,33.90
2022-08-28T14:16:26.659Z,33.90
2022-08-28T14:18:56.573Z,33.80
2022-08-28T14:21:25.955Z,33.80
2022-08-28T14:23:55.012Z,33.70
2022-08-28T14:26:25.586Z,33.60
2022-08-28T14:28:54.626Z,33.60
2022-08-28T14:31:26.444Z,33.50
2022-08-28T14:33:55.963Z,33.50
2022-08-28T14:36:27.954Z,33.30
2022-08-28T14:39:00.815Z,33.20
2022-08-28T14:41:35.651Z,33.20
2022-08-28T14:44:05.503Z,33.20
2022-08-28T14:46:36.117Z,33.30
2022-08-28T14:49:07.813Z,33.30
2022-08-28T14:51:38.537Z,33.30
2022-08-28T14:54:08.978Z,33.10
2022-08-28T14:56:39.805Z,33.00
2022-08-28T14:59:16.056Z,33.00
2022-08-28T15:01:46.925Z,32.90
2022-08-28T15:04:18.597Z,32.90
2022-08-28T15:06:47.840Z,32.90
2022-08-28T15:09:16.960Z,32.90
2022-08-28T15:11:47.422Z,32.90
2022-08-28T15:14:16.425Z,32.70
2022-08-28T15:16:47.872Z,32.50
2022-08-28T15:19:18.764Z,32.30
2022-08-28T15:21:50.033Z,32.10
2022-08-28T15:24:20.990Z,32.00
2022-08-28T15:26:51.540Z,32.00
2022-08-28T15:29:20.748Z,31.90
2022-08-28T15:31:51.018Z,31.80
2022-08-28T15:34:22.602Z,31.70
2022-08-28T15:36:55.331Z,31.60
2022-08-28T15:39:42.849Z,31.60
2022-08-28T15:42:13.926Z,31.70
2022-08-28T15:44:43.677Z,31.70
2022-08-28T15:47:16.555Z,31.70
2022-08-28T15:49:50.032Z,31.70
2022-08-28T15:52:21.394Z,31.80
2022-08-28T15:54:50.868Z,31.80
2022-08-28T15:57:21.384Z,31.70
2022-08-28T15:59:50.983Z,31.90
2022-08-28T16:02:21.581Z,32.00
2022-08-28T16:04:51.366Z,32.00
2022-08-28T16:07:21.895Z,31.60
2022-08-28T16:09:51.171Z,31.40
2022-08-28T16:12:22.026Z,31.40
2022-08-28T16:14:51.383Z,31.40
2022-08-28T16:17:20.433Z,31.40
2022-08-28T16:19:49.515Z,31.30
2022-08-28T16:22:19.089Z,31.30
2022-08-28T16:24:48.430Z,31.10
2022-08-28T16:27:17.467Z,31.10
2022-08-28T16:29:49.478Z,31.00
2022-08-28T16:32:23.186Z,31.00
2022-08-28T16:34:52.584Z,30.90
2022-08-28T16:37:21.666Z,30.70
2022-08-28T16:39:56.351Z,30.60
2022-08-28T16:42:29.675Z,30.50
2022-08-28T16:45:03.795Z,30.50
2022-08-28T16:47:34.585Z,30.30
2022-08-28T16:50:07.174Z,30.20
2022-08-28T16:52:36.524Z,30.10
2022-08-28T16:55:07.363Z,30.10
2022-08-28T16:57:36.715Z,30.00
2022-08-28T17:00:12.176Z,29.90
2022-08-28T17:02:43.293Z,29.80
2022-08-28T17:05:14.377Z,29.80
2022-08-28T17:07:43.722Z,29.90
2022-08-28T17:10:16.240Z,29.70
2022-08-28T17:12:45.568Z,29.70
2022-08-28T17:15:16.614Z,29.60
2022-08-28T17:17:46.525Z,29.50
2022-08-28T17:20:30.043Z,29.40
2022-08-28T17:22:59.275Z,29.30
2022-08-28T17:25:28.849Z,29.10
2022-08-28T17:27:58.069Z,29.10
2022-08-28T17:30:28.881Z,29.00
2022-08-28T17:32:58.170Z,29.00
2022-08-28T17:35:27.691Z,28.90
2022-08-28T17:37:57.786Z,28.80
2022-08-28T17:40:27.810Z,28.70
2022-08-28T17:42:57.837Z,28.50
2022-08-28T17:45:28.971Z,28.00
2022-08-28T17:47:59.038Z,27.60
2022-08-28T17:50:29.077Z,27.30
2022-08-28T17:52:58.689Z,27.00
2022-08-28T17:55:28.698Z,26.70
2022-08-28T17:57:58.401Z,26.50
2022-08-28T18:00:29.549Z,26.20
2022-08-28T18:03:05.373Z,25.90
2022-08-28T18:05:38.358Z,25.60
2022-08-28T18:08:19.838Z,25.40
2022-08-28T18:10:51.369Z,25.30
2022-08-28T18:13:21.848Z,25.20
2022-08-28T18:15:57.103Z,25.00
2022-08-28T18:18:36.398Z,25.00
2022-08-28T18:21:08.053Z,24.90
2022-08-28T18:23:40.230Z,24.80
2022-08-28T18:35:31.820Z,24.50
2022-08-28T18:38:02.560Z,24.30
2022-08-28T18:40:35.124Z,24.20
2022-08-28T18:43:06.640Z,24.20
2022-08-28T18:45:37.201Z,24.20
2022-08-28T18:48:08.755Z,24.20
2022-08-28T18:50:46.462Z,24.00
2022-08-28T18:53:17.474Z,24.00
2022-08-28T18:55:47.665Z,23.90
2022-08-28T18:58:21.375Z,23.70
2022-08-28T19:00:52.142Z,23.60
2022-08-28T19:03:28.202Z,23.50
2022-08-28T19:05:59.847Z,23.40
2022-08-28T19:08:30.567Z,23.40
2022-08-28T19:11:00.815Z,23.20
2022-08-28T19:13:31.440Z,23.20
2022-08-28T19:16:01.794Z,23.00
2022-08-28T19:18:32.589Z,22.90
2022-08-28T19:21:09.165Z,22.90
2022-08-28T19:23:40.100Z,22.90
2022-08-28T19:26:14.929Z,22.90
2022-08-28T19:28:46.857Z,22.90
2022-08-28T19:31:18.362Z,23.00
2022-08-28T19:33:49.247Z,23.00
2022-08-28T19:36:22.458Z,22.90
2022-08-28T19:38:52.592Z,23.00
2022-08-28T19:41:23.443Z,23.00
2022-08-28T19:43:54.238Z,23.00
2022-08-28T19:46:24.346Z,23.00
2022-08-28T19:48:56.834Z,23.00
2022-08-28T19:51:30.599Z,23.00
2022-08-28T19:54:01.001Z,22.90
2022-08-28T19:56:32.256Z,23.00
2022-08-28T19:59:04.188Z,23.00
2022-08-28T20:01:38.326Z,23.00
2022-08-28T20:04:10.441Z,23.00
2022-08-28T20:06:43.138Z,23.00
2022-08-28T20:09:13.357Z,23.00
2022-08-28T20:11:45.652Z,23.00
2022-08-28T20:14:16.654Z,23.00
2022-08-28T20:16:49.005Z,23.00
2022-08-28T20:19:19.722Z,23.00
2022-08-28T20:21:51.717Z,23.00
2022-08-28T20:24:31.317Z,23.00
2022-08-28T20:27:02.633Z,23.10
2022-08-28T20:29:33.998Z,23.20
2022-08-28T20:32:04.077Z,23.20
2022-08-28T20:34:33.648Z,23.30
2022-08-28T20:37:04.563Z,23.30
2022-08-28T20:39:34.223Z,23.30
2022-08-28T20:42:04.473Z,23.30
2022-08-28T20:44:33.964Z,23.30
2022-08-28T20:47:07.116Z,23.20
2022-08-28T20:49:38.975Z,23.20
2022-08-28T20:52:10.730Z,23.20
2022-08-28T20:54:44.475Z,23.20
2022-08-28T20:57:17.706Z,23.20
2022-08-28T20:59:54.326Z,23.20
2022-08-28T21:02:28.535Z,23.20
2022-08-28T21:04:58.408Z,23.20
2022-08-28T21:07:29.653Z,23.20
2022-08-28T21:10:07.073Z,23.20
2022-08-28T21:12:38.481Z,23.20
2022-08-28T21:15:09.823Z,23.10
2022-08-28T21:17:39.335Z,23.10
2022-08-28T21:20:11.924Z,23.20
2022-08-28T21:22:43.430Z,23.20
2022-08-28T21:25:13.799Z,23.20
2022-08-28T21:27:43.633Z,23.20
2022-08-28T21:30:16.163Z,23.30
2022-08-28T21:32:46.037Z,23.30
2022-08-28T21:35:15.898Z,23.20
2022-08-28T21:37:47.797Z,23.30
2022-08-28T21:40:17.625Z,23.10
2022-08-28T21:42:48.913Z,23.10
2022-08-28T21:45:18.633Z,23.10
2022-08-28T21:47:50.030Z,23.10
2022-08-28T21:50:19.377Z,23.10
2022-08-28T21:52:50.122Z,23.10
2022-08-28T21:55:19.704Z,23.10
2022-08-28T21:57:49.044Z,23.00
2022-08-28T22:00:24.051Z,23.00
2022-08-28T22:02:53.593Z,23.00
2022-08-28T22:05:23.326Z,23.00
2022-08-28T22:07:55.488Z,23.00
2022-08-28T22:10:25.975Z,23.00
2022-08-28T22:12:55.362Z,23.00
2022-08-28T22:15:26.732Z,23.00
2022-08-28T22:17:56.174Z,23.00
2022-08-28T22:20:25.945Z,22.90
2022-08-28T22:23:11.321Z,23.00
2022-08-28T22:25:42.683Z,22.90
2022-08-28T22:28:12.490Z,22.80
2022-08-28T22:30:42.108Z,22.80
2022-08-28T22:33:20.815Z,22.70
2022-08-28T22:35:50.872Z,22.70
2022-08-28T22:38:21.862Z,22.80
2022-08-28T22:40:51.952Z,22.60
2022-08-28T22:43:22.146Z,22.60
2022-08-28T22:45:52.545Z,22.50
2022-08-28T22:48:22.447Z,22.40
2022-08-28T22:50:55.349Z,22.40
2022-08-28T22:53:26.803Z,22.30
2022-08-28T22:56:01.146Z,22.30
2022-08-28T22:58:32.206Z,22.30
2022-08-28T23:01:07.333Z,22.20
2022-08-28T23:03:37.979Z,22.20
2022-08-28T23:06:08.293Z,22.20
2022-08-28T23:08:39.258Z,22.10
2022-08-28T23:11:08.993Z,22.10
2022-08-28T23:13:41.656Z,22.00
2022-08-28T23:16:15.494Z,22.00
2022-08-28T23:19:06.424Z,22.00
2022-08-28T23:21:35.728Z,21.90
2022-08-28T23:24:12.376Z,22.00
2022-08-28T23:26:42.491Z,22.00
2022-08-28T23:29:13.530Z,22.00
2022-08-28T23:31:43.583Z,22.00
2022-08-28T23:34:15.697Z,22.00
2022-08-28T23:36:45.888Z,22.00
2022-08-28T23:39:17.368Z,22.10
2022-08-28T23:41:48.336Z,22.00
2022-08-28T23:44:18.484Z,22.00
2022-08-28T23:46:48.302Z,21.90
2022-08-28T23:49:22.535Z,22.00
2022-08-28T23:51:54.858Z,22.00
2022-08-28T23:54:29.008Z,22.00
2022-08-28T23:56:59.789Z,21.80
2022-08-28T23:59:29.758Z,21.70
